createdAt,value
2017-10-23T00:02:02.911Z,9.60
2017-10-23T00:04:30.515Z,9.60
2017-10-23T00:06:58.095Z,9.60
2017-10-23T00:09:25.717Z,9.70
2017-10-23T00:11:53.296Z,9.60
2017-10-23T00:14:20.924Z,9.70
2017-10-23T00:16:48.518Z,9.60
2017-10-23T00:19:16.119Z,9.60
2017-10-23T00:21:43.694Z,9.60
2017-10-23T00:24:11.317Z,9.60
2017-10-23T00:26:39.694Z,9.60
2017-10-23T00:29:08.067Z,9.60
2017-10-23T00:31:36.447Z,9.50
2017-10-23T00:34:04.790Z,9.50
2017-10-23T00:36:32.430Z,9.50
2017-10-23T00:39:00.003Z,9.50
2017-10-23T00:41:27.586Z,9.50
2017-10-23T00:43:55.195Z,9.50
2017-10-23T00:46:22.775Z,9.50
2017-10-23T00:48:50.395Z,9.40
2017-10-23T00:51:18.748Z,9.50
2017-10-23T00:53:46.340Z,9.50
2017-10-23T00:56:13.963Z,9.40
2017-10-23T00:58:41.535Z,9.40
2017-10-23T01:01:09.135Z,9.50
2017-10-23T01:03:37.498Z,9.50
2017-10-23T01:06:05.899Z,9.50
2017-10-23T01:08:33.489Z,9.40
2017-10-23T01:11:01.079Z,9.40
2017-10-23T01:13:28.699Z,9.40
2017-10-23T01:15:56.263Z,9.40
2017-10-23T01:18:23.896Z,9.40
2017-10-23T01:20:52.228Z,9.40
2017-10-23T01:23:19.856Z,9.40
2017-10-23T01:25:47.467Z,9.40
2017-10-23T01:28:15.476Z,9.30
2017-10-23T01:30:43.082Z,9.40
2017-10-23T01:33:10.689Z,9.40
2017-10-23T01:35:39.082Z,9.40
2017-10-23T01:38:06.709Z,9.40
2017-10-23T01:40:34.317Z,9.40
2017-10-23T01:43:01.929Z,9.40
2017-10-23T01:45:29.532Z,9.40
2017-10-23T01:47:57.150Z,9.40
2017-10-23T01:50:24.779Z,9.40
2017-10-23T01:52:52.359Z,9.40
2017-10-23T01:55:19.940Z,9.40
2017-10-23T01:57:47.555Z,9.50
2017-10-23T02:00:15.166Z,9.50
2017-10-23T02:02:42.771Z,9.40
2017-10-23T02:05:10.383Z,9.30
2017-10-23T02:07:38.001Z,9.30
2017-10-23T02:10:05.572Z,9.30
2017-10-23T02:12:33.192Z,9.30
2017-10-23T02:15:01.600Z,9.30
2017-10-23T02:17:29.180Z,9.30
2017-10-23T02:19:56.754Z,9.30
2017-10-23T02:22:24.367Z,9.30
2017-10-23T02:24:51.954Z,9.30
2017-10-23T02:27:19.515Z,9.40
2017-10-23T02:29:47.111Z,9.40
2017-10-23T02:32:14.719Z,9.40
2017-10-23T02:34:42.290Z,9.30
2017-10-23T02:37:09.902Z,9.30
2017-10-23T02:39:38.252Z,9.40
2017-10-23T02:42:05.817Z,9.30
2017-10-23T02:44:33.408Z,9.30
2017-10-23T02:47:01.743Z,9.30
2017-10-23T02:49:29.356Z,9.30
2017-10-23T02:51:56.966Z,9.30
2017-10-23T02:54:24.531Z,9.30
2017-10-23T02:56:52.149Z,9.30
2017-10-23T02:59:19.769Z,9.30
2017-10-23T03:01:49.590Z,9.30
2017-10-23T03:04:17.213Z,9.30
2017-10-23T03:06:44.798Z,9.40
2017-10-23T03:09:12.364Z,9.40
2017-10-23T03:11:39.965Z,9.30
2017-10-23T03:14:07.550Z,9.40
2017-10-23T03:16:35.168Z,9.20
2017-10-23T03:19:03.518Z,9.20
2017-10-23T03:21:31.152Z,9.20
2017-10-23T03:23:58.736Z,9.30
2017-10-23T03:26:26.329Z,9.20
2017-10-23T03:28:54.735Z,9.30
2017-10-23T03:31:22.303Z,9.30
2017-10-23T03:33:49.870Z,9.20
2017-10-23T03:36:17.479Z,9.20
2017-10-23T03:38:45.061Z,9.20
2017-10-23T03:41:13.407Z,9.20
2017-10-23T03:43:41.036Z,9.20
2017-10-23T03:46:08.626Z,9.20
2017-10-23T03:48:36.259Z,9.10
2017-10-23T03:51:03.848Z,9.10
2017-10-23T03:53:31.441Z,9.10
2017-10-23T03:55:59.820Z,9.10
2017-10-23T03:58:28.200Z,9.10
2017-10-23T04:00:56.547Z,9.00
2017-10-23T04:03:24.186Z,9.10
2017-10-23T04:05:51.769Z,9.00
2017-10-23T04:08:19.349Z,9.00
2017-10-23T04:10:46.957Z,9.10
2017-10-23T04:13:14.562Z,9.00
2017-10-23T04:15:42.167Z,9.00
2017-10-23T04:18:09.828Z,9.00
2017-10-23T04:20:38.295Z,9.00
2017-10-23T04:23:06.631Z,8.90
2017-10-23T04:25:34.244Z,8.90
2017-10-23T04:28:01.826Z,9.00
2017-10-23T04:30:29.471Z,9.00
2017-10-23T04:32:57.052Z,8.90
2017-10-23T04:35:24.665Z,8.90
2017-10-23T04:37:52.993Z,9.00
2017-10-23T04:40:20.606Z,9.00
2017-10-23T04:42:48.947Z,9.00
2017-10-23T04:45:16.584Z,9.00
2017-10-23T04:47:44.142Z,8.90
2017-10-23T04:50:11.762Z,9.00
2017-10-23T04:52:39.323Z,8.90
2017-10-23T04:55:06.893Z,8.90
2017-10-23T04:57:35.270Z,8.90
2017-10-23T05:00:03.680Z,8.90
2017-10-23T05:02:31.292Z,8.80
2017-10-23T05:04:58.933Z,8.80
2017-10-23T05:07:26.499Z,8.80
2017-10-23T05:09:54.081Z,8.80
2017-10-23T05:12:21.717Z,8.80
2017-10-23T05:14:49.298Z,8.80
2017-10-23T05:17:16.872Z,8.90
2017-10-23T05:19:44.514Z,8.90
2017-10-23T05:22:12.088Z,8.90
2017-10-23T05:24:39.663Z,8.90
2017-10-23T05:27:08.061Z,9.00
2017-10-23T05:29:35.648Z,9.00
2017-10-23T05:32:03.316Z,9.00
2017-10-23T05:34:30.920Z,9.00
2017-10-23T05:36:59.275Z,9.10
2017-10-23T05:39:26.916Z,9.10
2017-10-23T05:41:54.520Z,9.10
2017-10-23T05:44:22.087Z,9.10
2017-10-23T05:46:50.464Z,9.10
2017-10-23T05:49:18.065Z,9.10
2017-10-23T05:51:45.694Z,9.20
2017-10-23T05:54:14.049Z,9.10
2017-10-23T05:56:41.655Z,9.10
2017-10-23T05:59:09.211Z,9.10
2017-10-23T06:01:36.843Z,9.10
2017-10-23T06:04:05.228Z,9.10
2017-10-23T06:06:32.821Z,9.10
2017-10-23T06:09:00.460Z,9.00
2017-10-23T06:11:28.808Z,9.10
2017-10-23T06:13:56.445Z,9.00
2017-10-23T06:16:24.032Z,9.10
2017-10-23T06:18:51.656Z,9.20
2017-10-23T06:21:19.281Z,9.20
2017-10-23T06:23:46.938Z,9.20
2017-10-23T06:26:14.516Z,9.30
2017-10-23T06:28:42.916Z,9.20
2017-10-23T06:31:10.554Z,9.30
2017-10-23T06:33:38.886Z,9.30
2017-10-23T06:36:06.513Z,9.30
2017-10-23T06:38:34.124Z,9.40
2017-10-23T06:41:01.716Z,9.30
2017-10-23T06:43:32.387Z,9.40
2017-10-23T06:46:00.342Z,9.40
2017-10-23T06:48:28.996Z,9.40
2017-10-23T06:50:56.634Z,9.50
2017-10-23T06:53:24.361Z,9.50
2017-10-23T06:55:51.977Z,9.50
2017-10-23T06:58:20.338Z,9.60
2017-10-23T07:00:47.955Z,9.60
2017-10-23T07:03:15.539Z,9.70
2017-10-23T07:05:43.149Z,9.80
2017-10-23T07:08:11.537Z,9.90
2017-10-23T07:10:39.871Z,9.80
2017-10-23T07:13:07.508Z,9.80
2017-10-23T07:15:35.094Z,9.90
2017-10-23T07:18:02.774Z,9.90
2017-10-23T07:20:30.391Z,9.90
2017-10-23T07:22:58.025Z,10.00
2017-10-23T07:25:26.418Z,10.00
2017-10-23T07:27:54.003Z,10.00
2017-10-23T07:30:29.419Z,10.00
2017-10-23T07:32:57.118Z,10.10
2017-10-23T07:35:24.761Z,10.10
2017-10-23T07:37:52.382Z,10.20
2017-10-23T07:40:19.960Z,10.20
2017-10-23T07:42:47.607Z,10.30
2017-10-23T07:45:15.999Z,10.30
2017-10-23T07:47:43.611Z,10.30
2017-10-23T07:50:11.207Z,10.40
2017-10-23T07:52:39.675Z,10.50
2017-10-23T07:55:07.267Z,10.50
2017-10-23T07:57:35.650Z,10.30
2017-10-23T08:00:03.211Z,10.30
2017-10-23T08:02:30.838Z,10.40
2017-10-23T08:04:58.460Z,10.40
2017-10-23T08:07:26.035Z,10.40
2017-10-23T08:09:53.610Z,10.50
2017-10-23T08:12:22.045Z,10.60
2017-10-23T08:14:49.696Z,10.50
2017-10-23T08:17:17.271Z,10.60
2017-10-23T08:19:44.876Z,10.60
2017-10-23T08:22:12.562Z,10.70
2017-10-23T08:24:46.420Z,10.80
2017-10-23T08:27:16.047Z,10.80
2017-10-23T08:29:43.697Z,10.70
2017-10-23T08:32:11.314Z,10.70
2017-10-23T08:34:39.306Z,10.90
2017-10-23T08:37:07.062Z,11.00
2017-10-23T08:39:38.055Z,11.00
2017-10-23T08:42:05.674Z,11.00
2017-10-23T08:44:39.824Z,10.90
2017-10-23T08:47:07.599Z,11.10
2017-10-23T08:49:35.245Z,11.20
2017-10-23T08:52:03.288Z,11.10
2017-10-23T08:54:31.357Z,11.20
2017-10-23T08:56:59.279Z,11.30
2017-10-23T08:59:27.830Z,11.20
2017-10-23T09:01:55.409Z,11.10
2017-10-23T09:04:23.064Z,11.40
2017-10-23T09:06:50.639Z,12.00
2017-10-23T09:09:18.279Z,12.90
2017-10-23T09:11:45.858Z,12.40
2017-10-23T09:14:13.500Z,11.80
2017-10-23T09:16:42.189Z,11.60
2017-10-23T09:19:09.793Z,11.50
2017-10-23T09:21:37.459Z,11.60
2017-10-23T09:24:05.867Z,11.70
2017-10-23T09:26:33.520Z,11.70
2017-10-23T09:29:01.141Z,11.60
2017-10-23T09:31:28.750Z,11.60
2017-10-23T09:33:56.387Z,11.40
2017-10-23T09:36:24.747Z,11.30
2017-10-23T09:38:52.378Z,11.30
2017-10-23T09:41:19.995Z,11.30
2017-10-23T09:43:48.353Z,11.30
2017-10-23T09:46:15.970Z,11.30
2017-10-23T09:48:43.571Z,11.40
2017-10-23T09:51:11.208Z,11.60
2017-10-23T09:53:38.830Z,11.60
2017-10-23T09:56:06.443Z,11.80
2017-10-23T09:58:34.100Z,11.70
2017-10-23T10:01:02.131Z,11.70
2017-10-23T10:03:29.790Z,11.70
2017-10-23T10:05:57.389Z,11.60
2017-10-23T10:08:25.103Z,11.60
2017-10-23T10:10:52.738Z,11.50
2017-10-23T10:13:20.317Z,11.50
2017-10-23T10:15:48.727Z,11.40
2017-10-23T10:18:16.299Z,11.40
2017-10-23T10:20:44.220Z,11.50
2017-10-23T10:23:11.803Z,11.50
2017-10-23T10:25:40.185Z,11.60
2017-10-23T10:28:08.535Z,11.70
2017-10-23T10:30:36.945Z,11.70
2017-10-23T10:33:04.552Z,11.70
2017-10-23T10:35:32.167Z,11.80
2017-10-23T10:37:59.747Z,11.80
2017-10-23T10:40:27.331Z,11.80
2017-10-23T10:42:54.949Z,11.90
2017-10-23T10:45:22.726Z,11.80
2017-10-23T10:47:50.362Z,11.70
2017-10-23T10:50:18.873Z,11.70
2017-10-23T10:52:46.491Z,11.70
2017-10-23T10:55:14.101Z,11.80
2017-10-23T10:57:41.695Z,11.80
2017-10-23T11:00:09.323Z,11.80
2017-10-23T11:02:36.910Z,12.00
2017-10-23T11:05:04.527Z,12.20
2017-10-23T11:07:34.750Z,12.70
2017-10-23T11:10:07.358Z,12.70
2017-10-23T11:12:34.967Z,13.00
2017-10-23T11:15:02.603Z,13.10
2017-10-23T11:17:30.529Z,13.10
2017-10-23T11:20:08.980Z,13.40
2017-10-23T11:22:36.636Z,13.60
2017-10-23T11:25:04.997Z,13.60
2017-10-23T11:27:32.716Z,13.60
2017-10-23T11:30:01.818Z,13.50
2017-10-23T11:32:29.815Z,13.20
2017-10-23T11:34:58.046Z,13.00
2017-10-23T11:37:25.723Z,12.80
2017-10-23T11:39:54.295Z,12.70
2017-10-23T11:42:22.677Z,12.60
2017-10-23T11:44:51.098Z,12.60
2017-10-23T11:47:19.188Z,12.60
2017-10-23T11:49:46.824Z,12.70
2017-10-23T11:52:14.472Z,12.70
2017-10-23T11:54:42.816Z,12.60
2017-10-23T11:57:10.439Z,10.10
2017-10-23T11:59:38.113Z,12.50
2017-10-23T12:02:05.775Z,12.40
2017-10-23T12:04:33.474Z,12.40
2017-10-23T12:07:01.079Z,12.30
2017-10-23T12:09:30.547Z,12.40
2017-10-23T12:11:58.211Z,12.40
2017-10-23T12:14:26.032Z,12.40
2017-10-23T12:16:53.684Z,12.40
2017-10-23T12:19:21.356Z,12.40
2017-10-23T12:21:48.937Z,12.30
2017-10-23T12:24:16.538Z,12.30
2017-10-23T12:26:44.157Z,12.20
2017-10-23T12:29:12.490Z,12.30
2017-10-23T12:31:40.158Z,12.30
2017-10-23T12:34:07.759Z,12.30
2017-10-23T12:36:35.348Z,12.30
2017-10-23T12:39:05.558Z,12.30
2017-10-23T12:41:33.545Z,12.20
2017-10-23T12:44:01.209Z,12.20
2017-10-23T12:46:28.791Z,12.20
2017-10-23T12:48:57.151Z,12.20
2017-10-23T12:51:24.779Z,12.20
2017-10-23T12:53:52.424Z,12.30
2017-10-23T12:56:20.042Z,12.60
2017-10-23T12:58:47.618Z,12.90
2017-10-23T13:01:16.027Z,13.70
2017-10-23T13:03:43.831Z,13.70
2017-10-23T13:06:11.399Z,13.50
2017-10-23T13:08:39.811Z,13.20
2017-10-23T13:11:07.418Z,13.10
2017-10-23T13:13:35.037Z,13.10
2017-10-23T13:16:03.451Z,12.90
2017-10-23T13:18:31.019Z,12.90
2017-10-23T13:20:58.627Z,12.90
2017-10-23T13:23:27.035Z,12.70
2017-10-23T13:25:54.671Z,12.70
2017-10-23T13:28:23.062Z,12.50
2017-10-23T13:30:50.679Z,12.50
2017-10-23T13:33:18.309Z,12.50
2017-10-23T13:35:45.935Z,12.50
2017-10-23T13:38:14.274Z,12.40
2017-10-23T13:40:41.862Z,12.40
2017-10-23T13:43:10.271Z,12.30
2017-10-23T13:45:37.875Z,12.30
2017-10-23T13:48:05.506Z,12.40
2017-10-23T13:50:33.144Z,12.40
2017-10-23T13:53:00.784Z,12.50
2017-10-23T13:55:28.386Z,12.70
2017-10-23T13:57:55.968Z,12.90
2017-10-23T14:00:23.917Z,12.70
2017-10-23T14:02:51.530Z,12.70
2017-10-23T14:05:19.210Z,12.70
2017-10-23T14:07:47.567Z,12.70
2017-10-23T14:10:15.137Z,12.70
2017-10-23T14:12:42.741Z,12.70
2017-10-23T14:15:19.708Z,12.60
2017-10-23T14:17:48.082Z,12.40
2017-10-23T14:20:16.422Z,12.50
2017-10-23T14:22:44.032Z,12.50
2017-10-23T14:25:11.632Z,12.50
2017-10-23T14:27:39.281Z,12.60
2017-10-23T14:30:06.877Z,12.70
2017-10-23T14:32:34.534Z,12.70
2017-10-23T14:35:02.126Z,12.70
2017-10-23T14:37:30.559Z,12.70
2017-10-23T14:39:58.199Z,12.80
2017-10-23T14:42:25.824Z,12.80
2017-10-23T14:44:54.184Z,12.70
2017-10-23T14:47:21.794Z,12.70
2017-10-23T14:49:49.471Z,12.60
2017-10-23T14:52:17.228Z,12.60
2017-10-23T14:54:44.905Z,12.60
2017-10-23T14:57:12.744Z,12.50
2017-10-23T14:59:40.310Z,12.50
2017-10-23T15:02:07.979Z,12.60
2017-10-23T15:04:36.990Z,12.40
2017-10-23T15:07:04.648Z,12.40
2017-10-23T15:09:32.223Z,12.40
2017-10-23T15:12:01.569Z,12.40
2017-10-23T15:14:29.928Z,12.40
2017-10-23T15:16:57.570Z,12.40
2017-10-23T15:19:25.143Z,12.40
2017-10-23T15:21:52.696Z,12.40
2017-10-23T15:24:20.306Z,12.30
2017-10-23T15:26:48.004Z,12.30
2017-10-23T15:29:15.588Z,12.20
2017-10-23T15:31:43.256Z,12.30
2017-10-23T15:34:10.818Z,12.30
2017-10-23T15:36:38.448Z,12.30
2017-10-23T15:39:06.080Z,12.30
2017-10-23T15:41:33.742Z,12.30
2017-10-23T15:44:01.395Z,12.20
2017-10-23T15:46:30.687Z,12.10
2017-10-23T15:48:58.428Z,12.10
2017-10-23T15:51:26.064Z,12.10
2017-10-23T15:53:54.641Z,12.10
2017-10-23T15:56:23.312Z,12.10
2017-10-23T15:58:51.626Z,12.10
2017-10-23T16:01:28.368Z,12.10
2017-10-23T16:03:57.139Z,12.00
2017-10-23T16:06:25.531Z,12.10
2017-10-23T16:08:53.121Z,12.00
2017-10-23T16:11:20.743Z,12.10
2017-10-23T16:13:48.392Z,12.00
2017-10-23T16:16:16.800Z,12.00
2017-10-23T16:18:44.423Z,11.90
2017-10-23T16:21:12.000Z,11.90
2017-10-23T16:23:39.635Z,11.90
2017-10-23T16:26:07.246Z,11.90
2017-10-23T16:28:34.838Z,11.90
2017-10-23T16:31:02.471Z,11.80
2017-10-23T16:33:30.108Z,11.90
2017-10-23T16:35:59.337Z,11.80
2017-10-23T16:38:28.854Z,11.80
2017-10-23T16:40:57.207Z,11.80
2017-10-23T16:43:25.754Z,11.80
2017-10-23T16:45:57.064Z,11.80
2017-10-23T16:48:26.649Z,11.70
2017-10-23T16:50:55.710Z,11.70
2017-10-23T16:53:25.409Z,11.70
2017-10-23T16:55:55.051Z,11.70
2017-10-23T16:58:28.124Z,11.70
2017-10-23T17:00:58.512Z,11.70
2017-10-23T17:03:28.227Z,11.70
2017-10-23T17:05:57.832Z,11.70
2017-10-23T17:08:28.844Z,11.60
2017-10-23T17:10:58.211Z,11.70
2017-10-23T17:13:29.424Z,11.60
2017-10-23T17:15:57.050Z,11.60
2017-10-23T17:18:24.619Z,11.60
2017-10-23T17:20:52.204Z,11.60
2017-10-23T17:23:19.819Z,11.60
2017-10-23T17:25:48.152Z,11.60
2017-10-23T17:28:15.743Z,11.60
2017-10-23T17:30:43.345Z,11.60
2017-10-23T17:33:10.924Z,11.60
2017-10-23T17:35:38.529Z,11.60
2017-10-23T17:38:06.876Z,11.50
2017-10-23T17:40:34.493Z,11.50
2017-10-23T17:43:02.056Z,11.50
2017-10-23T17:45:29.675Z,11.40
2017-10-23T17:47:57.282Z,11.40
2017-10-23T17:50:24.847Z,11.40
2017-10-23T17:52:52.454Z,11.40
2017-10-23T17:55:20.011Z,11.40
2017-10-23T17:57:47.575Z,11.40
2017-10-23T18:00:15.200Z,11.30
2017-10-23T18:02:42.768Z,11.30
2017-10-23T18:05:10.402Z,11.30
2017-10-23T18:07:37.971Z,11.30
2017-10-23T18:10:05.556Z,11.30
2017-10-23T18:12:33.159Z,11.40
2017-10-23T18:15:00.734Z,11.40
2017-10-23T18:17:29.107Z,11.40
2017-10-23T18:19:57.491Z,11.40
2017-10-23T18:22:25.814Z,11.40
2017-10-23T18:24:53.449Z,11.30
2017-10-23T18:27:21.029Z,11.30
2017-10-23T18:29:48.615Z,11.30
2017-10-23T18:32:18.324Z,11.40
2017-10-23T18:34:48.196Z,11.40
2017-10-23T18:37:17.790Z,11.40
2017-10-23T18:39:49.870Z,11.30
2017-10-23T18:42:19.710Z,11.30
2017-10-23T18:44:49.570Z,11.30
2017-10-23T18:47:20.240Z,11.40
2017-10-23T18:49:49.695Z,11.30
2017-10-23T18:52:19.567Z,11.40
2017-10-23T18:54:49.478Z,11.40
2017-10-23T18:57:19.115Z,11.40
2017-10-23T18:59:48.911Z,11.40
2017-10-23T19:02:18.691Z,11.50
2017-10-23T19:04:49.403Z,11.50
2017-10-23T19:07:19.841Z,11.40
2017-10-23T19:09:49.728Z,11.40
2017-10-23T19:12:20.407Z,11.40
2017-10-23T19:14:50.177Z,11.30
2017-10-23T19:17:20.036Z,11.30
2017-10-23T19:19:49.908Z,11.30
2017-10-23T19:22:19.829Z,11.40
2017-10-23T19:24:49.485Z,11.30
2017-10-23T19:27:19.304Z,11.30
2017-10-23T19:29:48.923Z,11.40
2017-10-23T19:32:18.856Z,11.40
2017-10-23T19:34:55.937Z,11.40
2017-10-23T19:37:25.830Z,11.40
2017-10-23T19:39:55.701Z,11.30
2017-10-23T19:42:26.160Z,11.30
2017-10-23T19:44:57.255Z,11.30
2017-10-23T19:47:28.012Z,11.40
2017-10-23T19:49:58.709Z,11.30
2017-10-23T19:52:28.424Z,11.30
2017-10-23T19:54:58.342Z,11.30
2017-10-23T19:57:28.037Z,11.40
2017-10-23T19:59:57.724Z,11.30
2017-10-23T20:02:28.391Z,11.30
2017-10-23T20:04:58.829Z,11.30
2017-10-23T20:07:28.494Z,11.30
2017-10-23T20:09:58.173Z,11.30
2017-10-23T20:12:30.222Z,11.30
2017-10-23T20:15:01.469Z,11.30
2017-10-23T20:17:32.097Z,11.20
2017-10-23T20:20:02.194Z,11.20
2017-10-23T20:22:32.339Z,11.30
2017-10-23T20:25:02.510Z,11.20
2017-10-23T20:27:39.777Z,11.20
2017-10-23T20:30:09.543Z,11.20
2017-10-23T20:32:38.994Z,11.20
2017-10-23T20:35:08.679Z,11.20
2017-10-23T20:37:39.798Z,11.30
2017-10-23T20:40:10.488Z,11.30
2017-10-23T20:42:39.852Z,11.20
2017-10-23T20:45:09.568Z,11.20
2017-10-23T20:47:40.315Z,11.20
2017-10-23T20:50:10.150Z,11.20
2017-10-23T20:52:41.041Z,11.20
2017-10-23T20:55:12.280Z,11.30
2017-10-23T20:57:41.950Z,11.30
2017-10-23T21:00:11.875Z,11.30
2017-10-23T21:02:41.314Z,11.20
2017-10-23T21:05:10.834Z,11.20
2017-10-23T21:07:40.666Z,11.20
2017-10-23T21:10:11.127Z,11.20
2017-10-23T21:12:40.684Z,11.20
2017-10-23T21:15:11.213Z,11.20
2017-10-23T21:17:40.761Z,11.30
2017-10-23T21:20:09.750Z,11.20
2017-10-23T21:22:39.024Z,11.30
2017-10-23T21:25:09.317Z,11.30
2017-10-23T21:27:38.702Z,11.30
2017-10-23T21:30:08.408Z,11.30
2017-10-23T21:32:37.984Z,11.30
2017-10-23T21:35:07.516Z,11.20
2017-10-23T21:37:37.032Z,11.20
2017-10-23T21:40:05.774Z,11.30
2017-10-23T21:42:35.474Z,11.30
2017-10-23T21:45:05.004Z,11.30
2017-10-23T21:47:35.941Z,11.30
2017-10-23T21:50:05.430Z,11.30
2017-10-23T21:52:35.883Z,11.30
2017-10-23T21:55:04.771Z,11.30
2017-10-23T21:57:34.055Z,11.30
2017-10-23T22:00:04.435Z,11.40
2017-10-23T22:02:33.397Z,11.40
2017-10-23T22:05:02.992Z,11.40
2017-10-23T22:07:32.632Z,11.30
2017-10-23T22:10:01.916Z,11.40
2017-10-23T22:12:30.491Z,11.40
2017-10-23T22:14:59.702Z,11.50
2017-10-23T22:17:29.238Z,11.50
2017-10-23T22:19:59.775Z,11.40
2017-10-23T22:22:29.210Z,11.40
2017-10-23T22:24:59.485Z,11.40
2017-10-23T22:27:29.940Z,11.30
2017-10-23T22:29:59.578Z,11.30
2017-10-23T22:32:29.842Z,11.40
2017-10-23T22:34:59.390Z,11.40
2017-10-23T22:37:28.840Z,11.50
2017-10-23T22:39:58.319Z,11.50
2017-10-23T22:42:29.081Z,11.50
2017-10-23T22:44:58.481Z,11.50
2017-10-23T22:47:27.928Z,11.50
2017-10-23T22:49:57.428Z,11.50
2017-10-23T22:52:26.728Z,11.50
2017-10-23T22:54:56.257Z,11.50
2017-10-23T22:57:25.919Z,11.50
2017-10-23T22:59:56.765Z,11.50
2017-10-23T23:02:26.636Z,11.40
2017-10-23T23:04:57.398Z,11.50
2017-10-23T23:07:25.007Z,11.50
2017-10-23T23:09:52.627Z,11.50
2017-10-23T23:12:20.206Z,11.60
2017-10-23T23:14:47.819Z,11.60
2017-10-23T23:17:16.160Z,11.50
2017-10-23T23:19:43.770Z,11.50
2017-10-23T23:22:11.378Z,11.50
2017-10-23T23:24:38.952Z,11.50
2017-10-23T23:27:07.340Z,11.50
2017-10-23T23:29:34.904Z,11.50
2017-10-23T23:32:02.521Z,11.50
2017-10-23T23:34:30.108Z,11.50
2017-10-23T23:36:57.714Z,11.50
2017-10-23T23:39:25.462Z,11.60
2017-10-23T23:41:53.802Z,11.60
2017-10-23T23:44:21.363Z,11.60
2017-10-23T23:46:48.970Z,11.60
2017-10-23T23:49:17.306Z,11.60
2017-10-23T23:51:44.907Z,11.60
2017-10-23T23:54:13.264Z,11.70
2017-10-23T23:56:40.863Z,11.70
2017-10-23T23:59:08.431Z,11.70
